Weather at Baptist St Anthony's Hospital Heliport

Public forecast

Using degrees Fahrenheit for public forecast. Weather courtesy of forecast.io.

Closest aviation weather report (METAR) to Baptist St Anthony's Hospital Heliport

Closest report is Rick Husband Amarillo International Airport, 10.6 nm (19.7 km) E. Retrieved 2020/10/27 19:53 UTC (54 minutes ago):

KAMA 271953Z AUTO 35016KT 5SM BR OVC009 M04/M06 A3013 RMK AO2 SLP232 T10391061

Closest aviation forecast (TAF) to Baptist St Anthony's Hospital Heliport

Closest forecast is Rick Husband Amarillo International Airport, 10.6 nm (19.7 km) E. Retrieved 2020/10/27 18:36 UTC (2 hours ago):

TAF COR KAMA 271734Z 2718/2818 36011KT 5SM BR OVC007 TEMPO 2718/2721 2SM -SN OVC007 FM280400 36007KT 1 1/2SM -FZRASNPL OVC004 FM281200 34006KT 2SM -TSSN OVC004CB